sensor_id;sensor_type;location;lat;lon;timestamp;P1;durP1;ratioP1;P2;durP2;ratioP2
46415;SDS011;32620;51.704;7.822;2024-01-16T00:01:07;24.45;;;11.00;;
46415;SDS011;32620;51.704;7.822;2024-01-16T00:03:33;21.85;;;9.10;;
46415;SDS011;32620;51.704;7.822;2024-01-16T00:06:00;25.45;;;9.38;;
46415;SDS011;32620;51.704;7.822;2024-01-16T00:08:25;20.10;;;9.23;;
46415;SDS011;32620;51.704;7.822;2024-01-16T00:10:51;23.30;;;9.98;;
46415;SDS011;32620;51.704;7.822;2024-01-16T00:13:16;20.05;;;9.82;;
46415;SDS011;32620;51.704;7.822;2024-01-16T00:15:42;27.40;;;9.27;;
46415;SDS011;32620;51.704;7.822;2024-01-16T00:18:08;19.83;;;9.65;;
46415;SDS011;32620;51.704;7.822;2024-01-16T00:20:34;26.08;;;10.25;;
46415;SDS011;32620;51.704;7.822;2024-01-16T00:22:59;17.90;;;9.63;;
46415;SDS011;32620;51.704;7.822;2024-01-16T00:25:25;28.40;;;10.80;;
46415;SDS011;32620;51.704;7.822;2024-01-16T00:27:51;32.25;;;11.98;;
46415;SDS011;32620;51.704;7.822;2024-01-16T00:30:16;28.83;;;11.30;;
46415;SDS011;32620;51.704;7.822;2024-01-16T00:32:42;22.88;;;10.55;;
46415;SDS011;32620;51.704;7.822;2024-01-16T00:35:08;24.50;;;11.02;;
46415;SDS011;32620;51.704;7.822;2024-01-16T00:37:35;25.30;;;10.90;;
46415;SDS011;32620;51.704;7.822;2024-01-16T00:40:02;30.58;;;11.95;;
46415;SDS011;32620;51.704;7.822;2024-01-16T00:42:29;29.67;;;12.02;;
46415;SDS011;32620;51.704;7.822;2024-01-16T00:44:56;26.73;;;11.77;;
46415;SDS011;32620;51.704;7.822;2024-01-16T00:47:23;33.33;;;12.20;;
46415;SDS011;32620;51.704;7.822;2024-01-16T00:49:49;30.30;;;12.45;;
46415;SDS011;32620;51.704;7.822;2024-01-16T00:52:14;25.40;;;12.13;;
46415;SDS011;32620;51.704;7.822;2024-01-16T00:54:40;33.05;;;12.70;;
46415;SDS011;32620;51.704;7.822;2024-01-16T00:57:06;31.35;;;12.70;;
46415;SDS011;32620;51.704;7.822;2024-01-16T00:59:32;31.65;;;13.77;;
46415;SDS011;32620;51.704;7.822;2024-01-16T01:01:57;30.02;;;13.38;;
46415;SDS011;32620;51.704;7.822;2024-01-16T01:04:23;31.20;;;13.32;;
46415;SDS011;32620;51.704;7.822;2024-01-16T01:06:49;35.17;;;15.38;;
46415;SDS011;32620;51.704;7.822;2024-01-16T01:09:15;29.92;;;13.27;;
46415;SDS011;32620;51.704;7.822;2024-01-16T01:11:41;29.20;;;14.05;;
46415;SDS011;32620;51.704;7.822;2024-01-16T01:14:06;30.13;;;14.52;;
46415;SDS011;32620;51.704;7.822;2024-01-16T01:16:32;36.75;;;13.80;;
46415;SDS011;32620;51.704;7.822;2024-01-16T01:18:58;39.92;;;15.45;;
46415;SDS011;32620;51.704;7.822;2024-01-16T01:21:23;38.33;;;15.10;;
46415;SDS011;32620;51.704;7.822;2024-01-16T01:23:49;29.80;;;14.75;;
46415;SDS011;32620;51.704;7.822;2024-01-16T01:26:14;32.42;;;14.57;;
46415;SDS011;32620;51.704;7.822;2024-01-16T01:28:42;31.70;;;14.82;;
46415;SDS011;32620;51.704;7.822;2024-01-16T01:31:09;35.53;;;14.45;;
46415;SDS011;32620;51.704;7.822;2024-01-16T01:33:35;35.03;;;16.25;;
46415;SDS011;32620;51.704;7.822;2024-01-16T01:36:00;38.35;;;16.50;;
46415;SDS011;32620;51.704;7.822;2024-01-16T01:38:26;33.17;;;14.57;;
46415;SDS011;32620;51.704;7.822;2024-01-16T01:40:51;34.28;;;14.68;;
46415;SDS011;32620;51.704;7.822;2024-01-16T01:43:18;25.70;;;13.70;;
46415;SDS011;32620;51.704;7.822;2024-01-16T01:45:46;29.83;;;13.88;;
46415;SDS011;32620;51.704;7.822;2024-01-16T01:48:19;37.30;;;15.02;;
46415;SDS011;32620;51.704;7.822;2024-01-16T01:50:44;27.85;;;15.18;;
46415;SDS011;32620;51.704;7.822;2024-01-16T01:53:10;37.47;;;15.80;;
46415;SDS011;32620;51.704;7.822;2024-01-16T01:55:35;31.25;;;14.27;;
46415;SDS011;32620;51.704;7.822;2024-01-16T01:58:02;33.75;;;15.25;;
46415;SDS011;32620;51.704;7.822;2024-01-16T02:00:29;31.42;;;13.88;;
46415;SDS011;32620;51.704;7.822;2024-01-16T02:02:55;34.58;;;13.55;;
46415;SDS011;32620;51.704;7.822;2024-01-16T02:05:20;35.55;;;14.10;;
46415;SDS011;32620;51.704;7.822;2024-01-16T02:07:47;35.17;;;14.68;;
46415;SDS011;32620;51.704;7.822;2024-01-16T02:10:12;28.92;;;13.52;;
46415;SDS011;32620;51.704;7.822;2024-01-16T02:12:39;28.90;;;13.38;;
46415;SDS011;32620;51.704;7.822;2024-01-16T02:15:04;32.15;;;13.20;;
46415;SDS011;32620;51.704;7.822;2024-01-16T02:17:30;32.90;;;12.45;;
46415;SDS011;32620;51.704;7.822;2024-01-16T02:19:55;30.70;;;13.27;;
46415;SDS011;32620;51.704;7.822;2024-01-16T02:22:21;32.95;;;13.82;;
46415;SDS011;32620;51.704;7.822;2024-01-16T02:24:50;28.60;;;12.35;;
46415;SDS011;32620;51.704;7.822;2024-01-16T02:27:16;30.65;;;13.13;;
46415;SDS011;32620;51.704;7.822;2024-01-16T02:29:42;28.48;;;12.30;;
46415;SDS011;32620;51.704;7.822;2024-01-16T02:32:10;31.58;;;12.98;;
46415;SDS011;32620;51.704;7.822;2024-01-16T02:34:37;33.33;;;14.10;;
46415;SDS011;32620;51.704;7.822;2024-01-16T02:37:03;31.98;;;13.95;;
46415;SDS011;32620;51.704;7.822;2024-01-16T02:39:29;28.98;;;13.88;;
46415;SDS011;32620;51.704;7.822;2024-01-16T02:41:54;32.50;;;15.38;;
46415;SDS011;32620;51.704;7.822;2024-01-16T02:44:20;34.95;;;14.52;;
46415;SDS011;32620;51.704;7.822;2024-01-16T02:46:45;32.63;;;14.55;;
46415;SDS011;32620;51.704;7.822;2024-01-16T02:49:11;35.28;;;14.88;;
46415;SDS011;32620;51.704;7.822;2024-01-16T02:51:36;30.70;;;13.98;;
46415;SDS011;32620;51.704;7.822;2024-01-16T02:54:03;34.38;;;14.65;;
46415;SDS011;32620;51.704;7.822;2024-01-16T02:56:30;29.05;;;13.88;;
46415;SDS011;32620;51.704;7.822;2024-01-16T02:58:55;29.08;;;12.95;;
46415;SDS011;32620;51.704;7.822;2024-01-16T03:01:21;32.08;;;14.30;;
46415;SDS011;32620;51.704;7.822;2024-01-16T03:03:46;34.55;;;15.02;;
46415;SDS011;32620;51.704;7.822;2024-01-16T03:06:21;32.95;;;15.98;;
46415;SDS011;32620;51.704;7.822;2024-01-16T03:08:48;35.50;;;16.05;;
46415;SDS011;32620;51.704;7.822;2024-01-16T03:11:14;44.50;;;17.60;;
46415;SDS011;32620;51.704;7.822;2024-01-16T03:13:39;32.08;;;15.20;;
46415;SDS011;32620;51.704;7.822;2024-01-16T03:16:06;36.80;;;15.98;;
46415;SDS011;32620;51.704;7.822;2024-01-16T03:18:32;35.25;;;15.65;;
46415;SDS011;32620;51.704;7.822;2024-01-16T03:20:58;41.50;;;16.73;;
46415;SDS011;32620;51.704;7.822;2024-01-16T03:23:24;42.50;;;17.25;;
46415;SDS011;32620;51.704;7.822;2024-01-16T03:25:50;30.15;;;15.25;;
46415;SDS011;32620;51.704;7.822;2024-01-16T03:28:15;28.27;;;14.48;;
46415;SDS011;32620;51.704;7.822;2024-01-16T03:30:41;41.28;;;15.02;;
46415;SDS011;32620;51.704;7.822;2024-01-16T03:33:06;33.13;;;15.63;;
46415;SDS011;32620;51.704;7.822;2024-01-16T03:35:32;32.55;;;14.98;;
46415;SDS011;32620;51.704;7.822;2024-01-16T03:37:57;25.15;;;14.00;;
46415;SDS011;32620;51.704;7.822;2024-01-16T03:40:23;27.75;;;13.13;;
46415;SDS011;32620;51.704;7.822;2024-01-16T03:42:49;28.58;;;12.95;;
46415;SDS011;32620;51.704;7.822;2024-01-16T03:45:14;27.13;;;12.95;;
46415;SDS011;32620;51.704;7.822;2024-01-16T03:47:40;29.08;;;11.82;;
46415;SDS011;32620;51.704;7.822;2024-01-16T03:50:06;27.65;;;11.90;;
46415;SDS011;32620;51.704;7.822;2024-01-16T03:52:31;26.90;;;12.63;;
46415;SDS011;32620;51.704;7.822;2024-01-16T03:54:57;24.75;;;11.93;;
46415;SDS011;32620;51.704;7.822;2024-01-16T03:57:22;31.63;;;13.13;;
46415;SDS011;32620;51.704;7.822;2024-01-16T03:59:49;35.50;;;14.43;;
46415;SDS011;32620;51.704;7.822;2024-01-16T04:02:15;27.38;;;13.60;;
46415;SDS011;32620;51.704;7.822;2024-01-16T04:04:40;26.25;;;13.45;;
46415;SDS011;32620;51.704;7.822;2024-01-16T04:07:06;32.33;;;14.13;;
46415;SDS011;32620;51.704;7.822;2024-01-16T04:09:31;27.35;;;12.90;;
46415;SDS011;32620;51.704;7.822;2024-01-16T04:11:57;32.65;;;13.00;;
46415;SDS011;32620;51.704;7.822;2024-01-16T04:14:22;23.58;;;13.07;;
46415;SDS011;32620;51.704;7.822;2024-01-16T04:16:48;36.22;;;14.82;;
46415;SDS011;32620;51.704;7.822;2024-01-16T04:19:13;36.45;;;15.50;;
46415;SDS011;32620;51.704;7.822;2024-01-16T04:21:39;30.15;;;14.23;;
46415;SDS011;32620;51.704;7.822;2024-01-16T04:24:04;33.60;;;15.35;;
46415;SDS011;32620;51.704;7.822;2024-01-16T04:26:30;34.05;;;16.10;;
46415;SDS011;32620;51.704;7.822;2024-01-16T04:28:55;35.92;;;16.75;;
46415;SDS011;32620;51.704;7.822;2024-01-16T04:31:21;40.95;;;18.58;;
46415;SDS011;32620;51.704;7.822;2024-01-16T04:33:47;43.65;;;20.52;;
46415;SDS011;32620;51.704;7.822;2024-01-16T04:36:13;45.40;;;20.00;;
46415;SDS011;32620;51.704;7.822;2024-01-16T04:38:38;45.92;;;20.50;;
46415;SDS011;32620;51.704;7.822;2024-01-16T04:41:04;40.90;;;21.40;;
46415;SDS011;32620;51.704;7.822;2024-01-16T04:43:30;50.13;;;20.10;;
46415;SDS011;32620;51.704;7.822;2024-01-16T04:45:55;52.42;;;20.58;;
46415;SDS011;32620;51.704;7.822;2024-01-16T04:48:21;43.17;;;20.45;;
46415;SDS011;32620;51.704;7.822;2024-01-16T04:50:46;48.25;;;20.90;;
46415;SDS011;32620;51.704;7.822;2024-01-16T04:53:12;46.88;;;20.77;;
46415;SDS011;32620;51.704;7.822;2024-01-16T04:55:38;47.42;;;20.55;;
46415;SDS011;32620;51.704;7.822;2024-01-16T04:58:03;50.35;;;22.42;;
46415;SDS011;32620;51.704;7.822;2024-01-16T05:00:30;46.67;;;20.83;;
46415;SDS011;32620;51.704;7.822;2024-01-16T05:02:57;44.42;;;19.80;;
46415;SDS011;32620;51.704;7.822;2024-01-16T05:05:23;47.80;;;21.20;;
46415;SDS011;32620;51.704;7.822;2024-01-16T05:07:48;53.00;;;21.98;;
46415;SDS011;32620;51.704;7.822;2024-01-16T05:10:14;42.78;;;21.02;;
46415;SDS011;32620;51.704;7.822;2024-01-16T05:12:40;50.22;;;22.23;;
46415;SDS011;32620;51.704;7.822;2024-01-16T05:15:06;44.67;;;20.60;;
46415;SDS011;32620;51.704;7.822;2024-01-16T05:17:32;42.70;;;21.48;;
46415;SDS011;32620;51.704;7.822;2024-01-16T05:19:57;48.17;;;21.40;;
46415;SDS011;32620;51.704;7.822;2024-01-16T05:22:23;45.70;;;21.35;;
46415;SDS011;32620;51.704;7.822;2024-01-16T05:24:50;44.53;;;20.25;;
46415;SDS011;32620;51.704;7.822;2024-01-16T05:27:16;47.95;;;22.38;;
46415;SDS011;32620;51.704;7.822;2024-01-16T05:29:41;46.53;;;21.75;;
46415;SDS011;32620;51.704;7.822;2024-01-16T05:32:07;51.47;;;22.40;;
46415;SDS011;32620;51.704;7.822;2024-01-16T05:34:32;45.33;;;21.98;;
46415;SDS011;32620;51.704;7.822;2024-01-16T05:36:58;43.35;;;21.30;;
46415;SDS011;32620;51.704;7.822;2024-01-16T05:39:23;48.60;;;21.15;;
46415;SDS011;32620;51.704;7.822;2024-01-16T05:41:49;45.13;;;23.15;;
46415;SDS011;32620;51.704;7.822;2024-01-16T05:44:15;49.33;;;22.40;;
46415;SDS011;32620;51.704;7.822;2024-01-16T05:46:41;43.47;;;22.63;;
46415;SDS011;32620;51.704;7.822;2024-01-16T05:49:06;55.30;;;26.15;;
46415;SDS011;32620;51.704;7.822;2024-01-16T05:51:32;51.30;;;23.52;;
46415;SDS011;32620;51.704;7.822;2024-01-16T05:53:57;52.15;;;23.85;;
46415;SDS011;32620;51.704;7.822;2024-01-16T05:56:23;46.97;;;23.05;;
46415;SDS011;32620;51.704;7.822;2024-01-16T05:58:48;50.03;;;23.98;;
46415;SDS011;32620;51.704;7.822;2024-01-16T06:01:14;41.80;;;21.95;;
46415;SDS011;32620;51.704;7.822;2024-01-16T06:03:40;47.95;;;22.50;;
46415;SDS011;32620;51.704;7.822;2024-01-16T06:06:06;47.05;;;23.35;;
46415;SDS011;32620;51.704;7.822;2024-01-16T06:08:32;48.75;;;21.50;;
46415;SDS011;32620;51.704;7.822;2024-01-16T06:10:58;46.15;;;20.33;;
46415;SDS011;32620;51.704;7.822;2024-01-16T06:13:24;45.80;;;20.40;;
46415;SDS011;32620;51.704;7.822;2024-01-16T06:15:49;40.00;;;18.80;;
46415;SDS011;32620;51.704;7.822;2024-01-16T06:18:15;46.03;;;20.08;;
46415;SDS011;32620;51.704;7.822;2024-01-16T06:20:40;43.05;;;19.95;;
46415;SDS011;32620;51.704;7.822;2024-01-16T06:23:06;46.55;;;19.48;;
46415;SDS011;32620;51.704;7.822;2024-01-16T06:25:31;44.63;;;22.60;;
46415;SDS011;32620;51.704;7.822;2024-01-16T06:27:57;49.88;;;22.73;;
46415;SDS011;32620;51.704;7.822;2024-01-16T06:30:22;47.95;;;22.52;;
46415;SDS011;32620;51.704;7.822;2024-01-16T06:32:48;48.40;;;23.73;;
46415;SDS011;32620;51.704;7.822;2024-01-16T06:35:15;50.72;;;24.08;;
46415;SDS011;32620;51.704;7.822;2024-01-16T06:37:41;49.78;;;23.75;;
46415;SDS011;32620;51.704;7.822;2024-01-16T06:40:08;48.78;;;23.88;;
46415;SDS011;32620;51.704;7.822;2024-01-16T06:42:34;55.45;;;24.08;;
46415;SDS011;32620;51.704;7.822;2024-01-16T06:45:01;46.53;;;22.27;;
46415;SDS011;32620;51.704;7.822;2024-01-16T06:47:27;50.95;;;23.70;;
46415;SDS011;32620;51.704;7.822;2024-01-16T06:49:52;58.17;;;25.27;;
46415;SDS011;32620;51.704;7.822;2024-01-16T06:52:18;58.38;;;24.35;;
46415;SDS011;32620;51.704;7.822;2024-01-16T06:54:44;55.30;;;26.00;;
46415;SDS011;32620;51.704;7.822;2024-01-16T06:57:10;61.08;;;23.77;;
46415;SDS011;32620;51.704;7.822;2024-01-16T06:59:36;58.10;;;25.20;;
46415;SDS011;32620;51.704;7.822;2024-01-16T07:02:01;48.20;;;24.85;;
46415;SDS011;32620;51.704;7.822;2024-01-16T07:04:27;53.58;;;24.42;;
46415;SDS011;32620;51.704;7.822;2024-01-16T07:06:52;49.38;;;23.85;;
46415;SDS011;32620;51.704;7.822;2024-01-16T07:09:18;53.53;;;26.58;;
46415;SDS011;32620;51.704;7.822;2024-01-16T07:11:45;47.30;;;21.92;;
46415;SDS011;32620;51.704;7.822;2024-01-16T07:14:11;59.42;;;24.92;;
46415;SDS011;32620;51.704;7.822;2024-01-16T07:16:37;43.45;;;23.95;;
46415;SDS011;32620;51.704;7.822;2024-01-16T07:19:03;40.88;;;20.15;;
46415;SDS011;32620;51.704;7.822;2024-01-16T07:21:29;32.78;;;17.40;;
46415;SDS011;32620;51.704;7.822;2024-01-16T07:23:54;33.70;;;17.67;;
46415;SDS011;32620;51.704;7.822;2024-01-16T07:26:20;32.28;;;15.63;;
46415;SDS011;32620;51.704;7.822;2024-01-16T07:28:46;24.17;;;13.27;;
46415;SDS011;32620;51.704;7.822;2024-01-16T07:31:13;30.50;;;14.00;;
46415;SDS011;32620;51.704;7.822;2024-01-16T07:33:39;29.38;;;14.48;;
46415;SDS011;32620;51.704;7.822;2024-01-16T07:36:05;29.58;;;13.57;;
46415;SDS011;32620;51.704;7.822;2024-01-16T07:38:34;32.10;;;14.68;;
46415;SDS011;32620;51.704;7.822;2024-01-16T07:41:01;26.48;;;13.93;;
46415;SDS011;32620;51.704;7.822;2024-01-16T07:43:26;29.85;;;16.02;;
46415;SDS011;32620;51.704;7.822;2024-01-16T07:45:52;33.00;;;15.00;;
46415;SDS011;32620;51.704;7.822;2024-01-16T07:48:17;29.05;;;13.68;;
46415;SDS011;32620;51.704;7.822;2024-01-16T07:50:43;24.65;;;12.70;;
46415;SDS011;32620;51.704;7.822;2024-01-16T07:53:10;23.00;;;11.85;;
46415;SDS011;32620;51.704;7.822;2024-01-16T07:55:36;26.15;;;10.98;;
46415;SDS011;32620;51.704;7.822;2024-01-16T07:58:02;24.65;;;11.57;;
46415;SDS011;32620;51.704;7.822;2024-01-16T08:00:29;21.85;;;11.80;;
46415;SDS011;32620;51.704;7.822;2024-01-16T08:02:55;23.73;;;12.48;;
46415;SDS011;32620;51.704;7.822;2024-01-16T08:05:21;32.65;;;13.63;;
46415;SDS011;32620;51.704;7.822;2024-01-16T08:07:50;27.88;;;13.98;;
46415;SDS011;32620;51.704;7.822;2024-01-16T08:10:16;30.58;;;15.30;;
46415;SDS011;32620;51.704;7.822;2024-01-16T08:12:41;35.55;;;16.15;;
46415;SDS011;32620;51.704;7.822;2024-01-16T08:15:07;30.85;;;16.08;;
46415;SDS011;32620;51.704;7.822;2024-01-16T08:17:33;41.55;;;18.23;;
46415;SDS011;32620;51.704;7.822;2024-01-16T08:19:59;36.75;;;17.77;;
46415;SDS011;32620;51.704;7.822;2024-01-16T08:22:24;34.60;;;18.17;;
46415;SDS011;32620;51.704;7.822;2024-01-16T08:24:50;43.65;;;20.52;;
46415;SDS011;32620;51.704;7.822;2024-01-16T08:27:15;43.78;;;20.08;;
46415;SDS011;32620;51.704;7.822;2024-01-16T08:29:42;47.67;;;20.02;;
46415;SDS011;32620;51.704;7.822;2024-01-16T08:32:07;46.88;;;20.75;;
46415;SDS011;32620;51.704;7.822;2024-01-16T08:34:34;44.35;;;20.08;;
46415;SDS011;32620;51.704;7.822;2024-01-16T08:37:00;51.00;;;22.00;;
46415;SDS011;32620;51.704;7.822;2024-01-16T08:39:26;51.65;;;24.70;;
46415;SDS011;32620;51.704;7.822;2024-01-16T08:41:52;52.40;;;22.48;;
46415;SDS011;32620;51.704;7.822;2024-01-16T08:44:19;54.95;;;24.73;;
46415;SDS011;32620;51.704;7.822;2024-01-16T08:46:44;57.08;;;24.75;;
46415;SDS011;32620;51.704;7.822;2024-01-16T08:49:11;56.60;;;25.25;;
46415;SDS011;32620;51.704;7.822;2024-01-16T08:51:36;50.20;;;24.42;;
46415;SDS011;32620;51.704;7.822;2024-01-16T08:54:02;60.22;;;26.10;;
46415;SDS011;32620;51.704;7.822;2024-01-16T08:56:28;51.03;;;26.73;;
46415;SDS011;32620;51.704;7.822;2024-01-16T08:58:53;67.65;;;29.02;;
46415;SDS011;32620;51.704;7.822;2024-01-16T09:01:19;66.50;;;27.75;;
46415;SDS011;32620;51.704;7.822;2024-01-16T09:03:45;68.45;;;27.42;;
46415;SDS011;32620;51.704;7.822;2024-01-16T09:06:12;54.20;;;27.63;;
46415;SDS011;32620;51.704;7.822;2024-01-16T09:08:37;54.97;;;26.48;;
46415;SDS011;32620;51.704;7.822;2024-01-16T09:11:03;57.65;;;26.15;;
46415;SDS011;32620;51.704;7.822;2024-01-16T09:13:29;51.83;;;25.27;;
46415;SDS011;32620;51.704;7.822;2024-01-16T09:15:54;50.60;;;24.70;;
46415;SDS011;32620;51.704;7.822;2024-01-16T09:18:20;53.38;;;25.95;;
46415;SDS011;32620;51.704;7.822;2024-01-16T09:20:45;50.30;;;25.13;;
46415;SDS011;32620;51.704;7.822;2024-01-16T09:23:11;49.10;;;23.05;;
46415;SDS011;32620;51.704;7.822;2024-01-16T09:25:37;44.67;;;23.23;;
46415;SDS011;32620;51.704;7.822;2024-01-16T09:28:03;49.22;;;21.30;;
46415;SDS011;32620;51.704;7.822;2024-01-16T09:30:28;39.22;;;19.20;;
46415;SDS011;32620;51.704;7.822;2024-01-16T09:32:54;36.00;;;18.38;;
46415;SDS011;32620;51.704;7.822;2024-01-16T09:35:20;35.67;;;16.67;;
46415;SDS011;32620;51.704;7.822;2024-01-16T09:37:47;33.78;;;16.48;;
46415;SDS011;32620;51.704;7.822;2024-01-16T09:40:12;34.60;;;15.80;;
46415;SDS011;32620;51.704;7.822;2024-01-16T09:42:38;32.70;;;15.88;;
46415;SDS011;32620;51.704;7.822;2024-01-16T09:45:05;34.42;;;15.70;;
46415;SDS011;32620;51.704;7.822;2024-01-16T09:47:31;33.40;;;15.18;;
46415;SDS011;32620;51.704;7.822;2024-01-16T09:50:00;35.60;;;14.10;;
46415;SDS011;32620;51.704;7.822;2024-01-16T09:52:28;30.45;;;14.40;;
46415;SDS011;32620;51.704;7.822;2024-01-16T09:54:54;26.33;;;12.43;;
46415;SDS011;32620;51.704;7.822;2024-01-16T09:57:20;24.70;;;11.70;;
46415;SDS011;32620;51.704;7.822;2024-01-16T09:59:51;29.42;;;11.65;;
46415;SDS011;32620;51.704;7.822;2024-01-16T10:02:18;21.23;;;9.65;;
46415;SDS011;32620;51.704;7.822;2024-01-16T10:04:45;20.13;;;9.20;;
46415;SDS011;32620;51.704;7.822;2024-01-16T10:07:12;21.23;;;8.40;;
46415;SDS011;32620;51.704;7.822;2024-01-16T10:09:39;21.08;;;9.02;;
46415;SDS011;32620;51.704;7.822;2024-01-16T10:12:05;16.33;;;7.75;;
46415;SDS011;32620;51.704;7.822;2024-01-16T10:14:31;22.38;;;8.00;;
46415;SDS011;32620;51.704;7.822;2024-01-16T10:16:58;20.23;;;7.72;;
46415;SDS011;32620;51.704;7.822;2024-01-16T10:19:30;16.38;;;7.57;;
46415;SDS011;32620;51.704;7.822;2024-01-16T10:22:03;16.50;;;6.68;;
46415;SDS011;32620;51.704;7.822;2024-01-16T10:24:30;20.10;;;6.55;;
46415;SDS011;32620;51.704;7.822;2024-01-16T10:26:57;19.58;;;6.43;;
46415;SDS011;32620;51.704;7.822;2024-01-16T10:29:25;14.88;;;5.60;;
46415;SDS011;32620;51.704;7.822;2024-01-16T10:31:51;19.48;;;6.80;;
46415;SDS011;32620;51.704;7.822;2024-01-16T10:34:20;19.60;;;5.53;;
46415;SDS011;32620;51.704;7.822;2024-01-16T10:36:48;19.17;;;6.53;;
46415;SDS011;32620;51.704;7.822;2024-01-16T10:39:15;24.63;;;7.10;;
46415;SDS011;32620;51.704;7.822;2024-01-16T10:41:41;19.50;;;6.05;;
46415;SDS011;32620;51.704;7.822;2024-01-16T10:44:07;16.05;;;5.90;;
46415;SDS011;32620;51.704;7.822;2024-01-16T10:46:33;16.52;;;6.20;;
46415;SDS011;32620;51.704;7.822;2024-01-16T10:49:00;24.27;;;5.90;;
46415;SDS011;32620;51.704;7.822;2024-01-16T10:51:27;18.20;;;5.90;;
46415;SDS011;32620;51.704;7.822;2024-01-16T10:54:01;12.63;;;5.07;;
46415;SDS011;32620;51.704;7.822;2024-01-16T10:56:30;13.60;;;4.88;;
46415;SDS011;32620;51.704;7.822;2024-01-16T10:59:02;14.95;;;5.15;;
46415;SDS011;32620;51.704;7.822;2024-01-16T11:01:37;19.90;;;4.40;;
46415;SDS011;32620;51.704;7.822;2024-01-16T11:04:04;15.63;;;4.68;;
46415;SDS011;32620;51.704;7.822;2024-01-16T11:06:31;11.90;;;4.50;;
46415;SDS011;32620;51.704;7.822;2024-01-16T11:08:57;15.80;;;4.97;;
46415;SDS011;32620;51.704;7.822;2024-01-16T11:11:24;13.68;;;4.45;;
46415;SDS011;32620;51.704;7.822;2024-01-16T11:13:52;17.02;;;4.30;;
46415;SDS011;32620;51.704;7.822;2024-01-16T11:16:18;11.68;;;3.90;;
46415;SDS011;32620;51.704;7.822;2024-01-16T11:18:44;13.73;;;4.10;;
46415;SDS011;32620;51.704;7.822;2024-01-16T11:21:11;18.52;;;4.38;;
46415;SDS011;32620;51.704;7.822;2024-01-16T11:23:39;16.30;;;4.60;;
46415;SDS011;32620;51.704;7.822;2024-01-16T11:26:24;16.88;;;3.92;;
46415;SDS011;32620;51.704;7.822;2024-01-16T11:28:52;14.82;;;4.50;;
46415;SDS011;32620;51.704;7.822;2024-01-16T11:31:36;17.13;;;4.53;;
46415;SDS011;32620;51.704;7.822;2024-01-16T11:34:03;11.93;;;4.75;;
46415;SDS011;32620;51.704;7.822;2024-01-16T11:37:01;14.27;;;4.93;;
46415;SDS011;32620;51.704;7.822;2024-01-16T11:39:19;19.77;;;4.57;;
46415;SDS011;32620;51.704;7.822;2024-01-16T11:41:49;17.42;;;5.20;;
46415;SDS011;32620;51.704;7.822;2024-01-16T11:44:39;23.05;;;5.90;;
46415;SDS011;32620;51.704;7.822;2024-01-16T11:47:18;13.70;;;4.28;;
46415;SDS011;32620;51.704;7.822;2024-01-16T11:49:45;14.38;;;4.22;;
46415;SDS011;32620;51.704;7.822;2024-01-16T11:52:12;12.93;;;4.40;;
46415;SDS011;32620;51.704;7.822;2024-01-16T11:54:39;12.55;;;4.18;;
46415;SDS011;32620;51.704;7.822;2024-01-16T11:57:12;10.20;;;4.20;;
46415;SDS011;32620;51.704;7.822;2024-01-16T12:00:02;17.13;;;5.63;;
46415;SDS011;32620;51.704;7.822;2024-01-16T12:02:40;12.07;;;5.10;;
46415;SDS011;32620;51.704;7.822;2024-01-16T12:05:13;21.15;;;5.63;;
46415;SDS011;32620;51.704;7.822;2024-01-16T12:07:43;16.05;;;5.93;;
46415;SDS011;32620;51.704;7.822;2024-01-16T12:10:10;12.45;;;5.10;;
46415;SDS011;32620;51.704;7.822;2024-01-16T12:12:36;13.38;;;5.30;;
46415;SDS011;32620;51.704;7.822;2024-01-16T12:15:01;18.67;;;5.30;;
46415;SDS011;32620;51.704;7.822;2024-01-16T12:17:29;18.20;;;4.90;;
46415;SDS011;32620;51.704;7.822;2024-01-16T12:19:54;10.25;;;4.53;;
46415;SDS011;32620;51.704;7.822;2024-01-16T12:22:20;18.10;;;5.22;;
46415;SDS011;32620;51.704;7.822;2024-01-16T12:24:47;18.63;;;4.90;;
46415;SDS011;32620;51.704;7.822;2024-01-16T12:27:13;17.92;;;5.00;;
46415;SDS011;32620;51.704;7.822;2024-01-16T12:29:39;15.70;;;4.90;;
46415;SDS011;32620;51.704;7.822;2024-01-16T12:32:07;17.02;;;4.82;;
46415;SDS011;32620;51.704;7.822;2024-01-16T12:34:34;19.67;;;5.45;;
46415;SDS011;32620;51.704;7.822;2024-01-16T12:37:07;15.23;;;4.63;;
46415;SDS011;32620;51.704;7.822;2024-01-16T12:39:33;17.15;;;5.93;;
46415;SDS011;32620;51.704;7.822;2024-01-16T12:42:00;17.52;;;4.60;;
46415;SDS011;32620;51.704;7.822;2024-01-16T12:44:27;16.85;;;5.43;;
46415;SDS011;32620;51.704;7.822;2024-01-16T12:46:54;17.80;;;4.90;;
46415;SDS011;32620;51.704;7.822;2024-01-16T12:49:21;14.55;;;5.45;;
46415;SDS011;32620;51.704;7.822;2024-01-16T12:51:48;15.20;;;5.20;;
46415;SDS011;32620;51.704;7.822;2024-01-16T12:54:14;10.70;;;4.90;;
46415;SDS011;32620;51.704;7.822;2024-01-16T12:56:42;10.65;;;4.60;;
46415;SDS011;32620;51.704;7.822;2024-01-16T12:59:10;13.50;;;4.70;;
46415;SDS011;32620;51.704;7.822;2024-01-16T13:01:39;16.35;;;5.88;;
46415;SDS011;32620;51.704;7.822;2024-01-16T13:04:06;14.90;;;4.65;;
46415;SDS011;32620;51.704;7.822;2024-01-16T13:06:32;14.25;;;4.72;;
46415;SDS011;32620;51.704;7.822;2024-01-16T13:09:14;18.70;;;5.30;;
46415;SDS011;32620;51.704;7.822;2024-01-16T13:11:55;13.65;;;4.22;;
46415;SDS011;32620;51.704;7.822;2024-01-16T13:14:23;16.10;;;5.18;;
46415;SDS011;32620;51.704;7.822;2024-01-16T13:16:49;14.70;;;5.05;;
46415;SDS011;32620;51.704;7.822;2024-01-16T13:19:17;10.23;;;4.47;;
46415;SDS011;32620;51.704;7.822;2024-01-16T13:21:44;14.48;;;5.05;;
46415;SDS011;32620;51.704;7.822;2024-01-16T13:24:10;13.75;;;4.25;;
46415;SDS011;32620;51.704;7.822;2024-01-16T13:26:36;11.52;;;4.60;;
46415;SDS011;32620;51.704;7.822;2024-01-16T13:29:02;14.25;;;4.53;;
46415;SDS011;32620;51.704;7.822;2024-01-16T13:31:28;12.40;;;4.82;;
46415;SDS011;32620;51.704;7.822;2024-01-16T13:33:54;11.40;;;4.88;;
46415;SDS011;32620;51.704;7.822;2024-01-16T13:36:21;15.45;;;4.05;;
46415;SDS011;32620;51.704;7.822;2024-01-16T13:38:47;12.98;;;4.60;;
46415;SDS011;32620;51.704;7.822;2024-01-16T13:41:13;11.75;;;4.50;;
46415;SDS011;32620;51.704;7.822;2024-01-16T13:43:40;16.60;;;5.28;;
46415;SDS011;32620;51.704;7.822;2024-01-16T13:46:05;10.35;;;3.92;;
46415;SDS011;32620;51.704;7.822;2024-01-16T13:48:33;11.88;;;4.90;;
46415;SDS011;32620;51.704;7.822;2024-01-16T13:50:59;14.10;;;4.88;;
46415;SDS011;32620;51.704;7.822;2024-01-16T13:53:24;11.48;;;4.97;;
46415;SDS011;32620;51.704;7.822;2024-01-16T13:55:50;14.07;;;5.10;;
46415;SDS011;32620;51.704;7.822;2024-01-16T13:58:16;14.52;;;5.43;;
46415;SDS011;32620;51.704;7.822;2024-01-16T14:00:41;15.27;;;4.90;;
46415;SDS011;32620;51.704;7.822;2024-01-16T14:03:07;19.08;;;5.65;;
46415;SDS011;32620;51.704;7.822;2024-01-16T14:05:32;17.63;;;6.18;;
46415;SDS011;32620;51.704;7.822;2024-01-16T14:07:58;13.23;;;6.00;;
46415;SDS011;32620;51.704;7.822;2024-01-16T14:10:24;17.33;;;6.40;;
46415;SDS011;32620;51.704;7.822;2024-01-16T14:12:50;13.57;;;5.55;;
46415;SDS011;32620;51.704;7.822;2024-01-16T14:15:17;13.07;;;5.90;;
46415;SDS011;32620;51.704;7.822;2024-01-16T14:17:46;18.63;;;5.72;;
46415;SDS011;32620;51.704;7.822;2024-01-16T14:20:13;15.57;;;5.47;;
46415;SDS011;32620;51.704;7.822;2024-01-16T14:22:40;19.38;;;4.93;;